createdAt,value
2017-11-22T04:32:37.213Z,9.98
2017-11-22T04:35:04.799Z,9.23
2017-11-22T04:37:32.419Z,10.02
2017-11-22T04:40:00.061Z,11.30
2017-11-22T04:42:27.639Z,10.48
2017-11-22T04:44:55.235Z,11.23
2017-11-22T04:47:22.885Z,11.65
2017-11-22T04:49:50.479Z,11.15
2017-11-22T04:52:18.843Z,11.57
2017-11-22T04:54:46.450Z,11.02
2017-11-22T04:57:14.040Z,11.73
2017-11-22T04:59:41.684Z,12.07
2017-11-22T05:02:09.274Z,12.05
2017-11-22T05:04:36.858Z,12.05
2017-11-22T05:07:05.255Z,11.40
2017-11-22T05:09:32.835Z,11.93
2017-11-22T05:12:00.427Z,12.13
2017-11-22T05:14:28.077Z,12.70
2017-11-22T05:16:55.667Z,12.93
2017-11-22T05:19:24.014Z,12.93
2017-11-22T05:21:52.394Z,12.13
2017-11-22T05:24:19.987Z,14.15
2017-11-22T05:26:48.340Z,13.20
2017-11-22T05:29:15.976Z,12.90
2017-11-22T05:31:43.558Z,12.50
2017-11-22T05:34:11.143Z,12.77
2017-11-22T05:36:39.576Z,12.48
2017-11-22T05:39:07.167Z,11.55
2017-11-22T05:41:35.518Z,13.93
2017-11-22T05:44:03.150Z,13.90
2017-11-22T05:46:30.740Z,12.27
2017-11-22T05:48:58.354Z,12.75
2017-11-22T05:51:25.946Z,12.75
2017-11-22T05:53:53.544Z,11.77
2017-11-22T05:56:21.931Z,11.82
2017-11-22T05:58:50.290Z,11.20
2017-11-22T06:01:19.116Z,12.13
2017-11-22T06:03:46.744Z,12.45
2017-11-22T06:06:15.103Z,10.60
2017-11-22T06:08:42.706Z,12.10
2017-11-22T06:11:10.343Z,11.70
2017-11-22T06:13:38.692Z,11.35
2017-11-22T06:16:06.288Z,12.85
2017-11-22T06:18:34.687Z,11.93
2017-11-22T06:21:02.281Z,11.95
2017-11-22T06:23:29.875Z,11.68
2017-11-22T06:25:58.251Z,11.80
2017-11-22T06:28:25.875Z,11.20
2017-11-22T06:31:00.880Z,11.30
2017-11-22T06:33:28.458Z,11.05
2017-11-22T06:35:56.047Z,10.57
2017-11-22T06:38:23.774Z,9.88
2017-11-22T06:40:51.366Z,10.40
2017-11-22T06:43:20.738Z,10.40
2017-11-22T06:45:48.363Z,10.88
2017-11-22T06:48:15.938Z,10.60
2017-11-22T06:50:43.524Z,11.55
2017-11-22T06:53:11.187Z,10.57
2017-11-22T06:55:38.779Z,10.70
2017-11-22T06:58:07.136Z,10.73
2017-11-22T07:00:34.773Z,10.45
2017-11-22T07:03:02.365Z,10.65
2017-11-22T07:05:29.959Z,11.75
2017-11-22T07:07:57.570Z,10.75
2017-11-22T07:10:25.162Z,11.32
2017-11-22T07:12:53.502Z,11.27
2017-11-22T07:15:21.130Z,10.00
2017-11-22T07:17:49.653Z,11.43
2017-11-22T07:20:17.239Z,10.05
2017-11-22T07:22:44.876Z,9.77
2017-11-22T07:25:13.243Z,9.85
2017-11-22T07:27:40.830Z,10.02
2017-11-22T07:30:09.230Z,10.85
2017-11-22T07:32:36.821Z,9.93
2017-11-22T07:35:04.415Z,10.45
2017-11-22T07:37:36.625Z,9.98
2017-11-22T07:40:04.511Z,9.70
2017-11-22T07:42:32.093Z,9.35
2017-11-22T07:45:00.478Z,9.90
2017-11-22T07:47:28.058Z,8.52
2017-11-22T07:49:56.407Z,10.40
2017-11-22T07:52:24.011Z,9.05
2017-11-22T07:54:51.587Z,10.10
2017-11-22T07:57:25.024Z,9.13
2017-11-22T07:59:52.603Z,9.55
2017-11-22T08:02:20.951Z,8.65
2017-11-22T08:04:48.559Z,10.73
2017-11-22T08:07:16.141Z,8.68
2017-11-22T08:09:43.721Z,9.60
2017-11-22T08:12:11.322Z,9.30
2017-11-22T08:14:38.915Z,9.63
2017-11-22T08:17:06.514Z,8.80
2017-11-22T08:19:34.098Z,9.27
2017-11-22T08:22:01.802Z,8.95
2017-11-22T08:24:29.419Z,8.48
2017-11-22T08:26:56.999Z,7.72
2017-11-22T08:29:24.574Z,8.27
2017-11-22T08:31:52.208Z,7.45
2017-11-22T08:34:19.788Z,7.68
2017-11-22T08:36:47.379Z,8.23
2017-11-22T08:39:15.027Z,9.45
2017-11-22T08:41:42.611Z,7.37
2017-11-22T08:44:11.201Z,8.05
2017-11-22T08:46:39.575Z,9.30
2017-11-22T08:49:08.539Z,8.60
2017-11-22T08:51:36.183Z,8.25
2017-11-22T08:54:09.383Z,8.55
2017-11-22T08:56:42.857Z,8.93
2017-11-22T08:59:10.509Z,7.62
2017-11-22T09:01:38.087Z,8.40
2017-11-22T09:04:09.578Z,7.95
2017-11-22T09:06:39.123Z,8.50
2017-11-22T09:09:06.810Z,8.95
2017-11-22T09:11:34.667Z,8.40
2017-11-22T09:14:02.352Z,9.13
2017-11-22T09:16:30.035Z,9.00
2017-11-22T09:19:00.380Z,8.60
2017-11-22T09:21:27.979Z,8.25
2017-11-22T09:23:55.596Z,8.27
2017-11-22T09:26:23.255Z,7.07
2017-11-22T09:28:51.540Z,7.40
2017-11-22T09:31:24.784Z,6.87
2017-11-22T09:33:58.187Z,7.82
2017-11-22T09:36:27.619Z,6.47
2017-11-22T09:38:55.212Z,7.28
2017-11-22T09:41:22.798Z,8.27
2017-11-22T09:43:50.421Z,8.02
2017-11-22T09:46:18.027Z,7.10
2017-11-22T09:48:45.677Z,6.50
2017-11-22T09:51:13.288Z,7.18
2017-11-22T09:53:40.883Z,7.47
2017-11-22T09:56:08.532Z,7.00
2017-11-22T09:58:36.129Z,6.62
2017-11-22T10:01:04.475Z,7.20
2017-11-22T10:03:32.083Z,6.87
2017-11-22T10:06:00.430Z,7.70
2017-11-22T10:08:28.020Z,6.65
2017-11-22T10:10:56.391Z,7.35
2017-11-22T10:13:23.974Z,7.03
2017-11-22T10:15:51.572Z,7.28
2017-11-22T10:18:19.215Z,6.35
2017-11-22T10:20:49.566Z,7.25
2017-11-22T10:23:22.893Z,7.80
2017-11-22T10:25:50.491Z,7.28
2017-11-22T10:28:18.104Z,6.00
2017-11-22T10:30:46.476Z,7.00
2017-11-22T10:33:14.884Z,7.75
2017-11-22T10:35:42.477Z,8.18
2017-11-22T10:38:10.092Z,7.15
2017-11-22T10:40:37.744Z,7.20
2017-11-22T10:43:06.096Z,6.70
2017-11-22T10:45:33.697Z,8.55
2017-11-22T10:48:01.480Z,7.97
2017-11-22T10:50:29.069Z,8.85
2017-11-22T10:52:56.661Z,8.98
2017-11-22T10:55:24.281Z,8.32
2017-11-22T10:57:51.880Z,9.82
2017-11-22T11:00:19.501Z,8.98
2017-11-22T11:02:47.105Z,9.35
2017-11-22T11:05:14.694Z,9.40
2017-11-22T11:07:42.303Z,9.82
2017-11-22T11:10:09.903Z,7.97
2017-11-22T11:12:37.639Z,9.30
2017-11-22T11:15:05.228Z,9.98
2017-11-22T11:17:32.829Z,10.40
2017-11-22T11:20:00.457Z,8.27
2017-11-22T11:22:28.075Z,10.55
2017-11-22T11:24:55.672Z,10.95
2017-11-22T11:27:23.288Z,10.23
2017-11-22T11:29:52.517Z,10.23
2017-11-22T11:32:20.114Z,9.57
2017-11-22T11:34:47.728Z,9.93
2017-11-22T11:37:15.324Z,9.65
2017-11-22T11:39:42.964Z,9.00
2017-11-22T11:42:10.557Z,9.75
2017-11-22T11:44:38.158Z,10.50
2017-11-22T11:47:05.778Z,9.85
2017-11-22T11:49:33.374Z,8.98
2017-11-22T11:52:00.951Z,9.35
2017-11-22T11:54:28.567Z,9.48
2017-11-22T11:56:56.924Z,10.20
2017-11-22T11:59:24.511Z,10.40
2017-11-22T12:01:52.904Z,8.20
2017-11-22T12:04:20.499Z,10.00
2017-11-22T12:06:48.071Z,8.00
2017-11-22T12:09:15.679Z,10.55
2017-11-22T12:11:43.259Z,9.20
2017-11-22T12:14:10.839Z,8.48
2017-11-22T12:16:38.455Z,8.20
2017-11-22T12:19:06.038Z,9.40
2017-11-22T12:24:35.197Z,10.50
2017-11-22T12:27:05.657Z,9.50
2017-11-22T12:29:33.243Z,9.70
2017-11-22T12:32:00.819Z,8.10
2017-11-22T12:34:28.455Z,9.80
2017-11-22T12:36:56.031Z,7.90
2017-11-22T12:39:23.606Z,9.23
2017-11-22T12:41:51.239Z,8.73
2017-11-22T12:44:18.819Z,8.90
2017-11-22T12:46:46.398Z,9.73
2017-11-22T12:49:14.035Z,8.52
2017-11-22T12:51:41.617Z,9.35
2017-11-22T12:54:09.231Z,9.68
2017-11-22T12:56:37.901Z,9.13
2017-11-22T12:59:06.335Z,9.70
2017-11-22T13:01:33.972Z,10.25
2017-11-22T13:04:01.584Z,8.65
2017-11-22T13:06:29.171Z,9.00
2017-11-22T13:08:56.847Z,9.02
2017-11-22T13:11:26.035Z,8.45
2017-11-22T13:13:53.974Z,7.85
2017-11-22T13:16:21.602Z,8.77
2017-11-22T13:18:49.220Z,8.40
2017-11-22T13:21:16.807Z,8.95
2017-11-22T13:23:44.409Z,8.75
2017-11-22T13:26:11.993Z,9.35
2017-11-22T13:28:39.653Z,7.70
2017-11-22T13:31:07.682Z,9.05
2017-11-22T13:33:35.324Z,8.60
2017-11-22T13:36:03.114Z,9.13
2017-11-22T13:38:30.705Z,8.80
2017-11-22T13:40:58.469Z,8.05
2017-11-22T13:43:26.166Z,8.38
2017-11-22T13:45:54.524Z,8.02
2017-11-22T13:48:22.172Z,8.13
2017-11-22T13:50:49.811Z,8.07
2017-11-22T13:53:17.391Z,8.15
2017-11-22T13:55:44.972Z,8.85
2017-11-22T13:58:12.601Z,7.90
2017-11-22T14:00:40.184Z,8.30
2017-11-22T14:03:07.767Z,8.57
2017-11-22T14:08:00.414Z,8.45
2017-11-22T14:10:28.001Z,7.40
2017-11-22T14:12:56.347Z,8.00
2017-11-22T14:15:23.963Z,9.52
2017-11-22T14:17:51.551Z,8.40
2017-11-22T14:20:19.182Z,9.13
2017-11-22T14:22:46.763Z,8.48
2017-11-22T14:25:14.347Z,8.80
2017-11-22T14:27:41.968Z,9.13
2017-11-22T14:30:09.552Z,8.65
2017-11-22T14:32:37.130Z,8.73
2017-11-22T14:35:04.751Z,9.05
2017-11-22T14:37:32.362Z,8.85
2017-11-22T14:40:00.715Z,9.07
2017-11-22T14:42:28.294Z,8.98
2017-11-22T14:44:56.678Z,8.57
2017-11-22T14:47:25.030Z,7.25
2017-11-22T14:49:52.619Z,8.63
2017-11-22T14:52:20.235Z,8.70
2017-11-22T14:54:47.813Z,8.82
2017-11-22T14:57:15.395Z,8.38
2017-11-22T14:59:43.766Z,8.90
2017-11-22T15:02:12.110Z,9.60
2017-11-22T15:04:39.699Z,10.00
2017-11-22T15:07:08.103Z,10.90
2017-11-22T15:09:35.689Z,11.32
2017-11-22T15:12:03.272Z,10.77
2017-11-22T15:14:30.898Z,10.70
2017-11-22T15:16:58.475Z,9.25
2017-11-22T15:19:26.054Z,8.07
2017-11-22T15:21:53.671Z,8.32
2017-11-22T15:24:21.250Z,7.70
2017-11-22T15:26:48.832Z,7.65
2017-11-22T15:29:17.212Z,7.60
2017-11-22T15:31:44.791Z,7.00
2017-11-22T15:34:12.372Z,7.97
2017-11-22T15:36:39.970Z,7.45
2017-11-22T15:39:07.554Z,7.72
2017-11-22T15:41:35.955Z,7.50
2017-11-22T15:44:03.542Z,7.75
2017-11-22T15:46:31.883Z,7.80
2017-11-22T15:48:59.619Z,7.47
2017-11-22T15:51:27.195Z,7.62
2017-11-22T15:53:55.539Z,8.63
2017-11-22T15:56:23.154Z,10.70
2017-11-22T15:58:50.730Z,9.25
2017-11-22T16:01:18.311Z,8.77
2017-11-22T16:03:46.674Z,8.70
2017-11-22T16:06:14.247Z,9.93
2017-11-22T16:08:41.818Z,8.90
2017-11-22T16:11:09.447Z,8.38
2017-11-22T16:13:37.804Z,9.55
2017-11-22T16:16:05.383Z,9.70
2017-11-22T16:18:33.002Z,10.95
2017-11-22T16:21:01.351Z,13.10
2017-11-22T16:23:28.977Z,14.13
2017-11-22T16:25:56.582Z,18.83
2017-11-22T16:28:24.947Z,17.80
2017-11-22T16:30:52.531Z,17.75
2017-11-22T16:33:20.906Z,15.90
2017-11-22T16:35:49.251Z,20.42
2017-11-22T16:38:16.850Z,19.55
2017-11-22T16:40:44.430Z,19.80
2017-11-22T16:43:12.027Z,13.60
2017-11-22T16:45:39.652Z,14.68
2017-11-22T16:48:07.230Z,15.68
2017-11-22T16:50:34.814Z,14.87
2017-11-22T16:53:02.471Z,18.25
2017-11-22T16:55:30.100Z,19.02
2017-11-22T16:57:57.687Z,17.25
2017-11-22T17:00:25.298Z,17.05
2017-11-22T17:02:52.883Z,15.95
2017-11-22T17:05:20.462Z,15.85
2017-11-22T17:07:48.083Z,16.33
2017-11-22T17:10:15.666Z,16.35
2017-11-22T17:12:43.247Z,16.10
2017-11-22T17:15:10.859Z,14.07
2017-11-22T17:17:38.461Z,15.90
2017-11-22T17:20:06.537Z,17.60
2017-11-22T17:22:34.147Z,15.23
2017-11-22T17:25:01.731Z,14.30
2017-11-22T17:27:29.312Z,14.35
2017-11-22T17:29:56.922Z,13.70
2017-11-22T17:32:24.499Z,12.57
2017-11-22T17:34:52.079Z,17.48
2017-11-22T17:37:19.686Z,16.60
2017-11-22T17:39:47.270Z,15.45
2017-11-22T17:42:14.894Z,14.80
2017-11-22T17:44:42.482Z,13.68
2017-11-22T17:47:10.075Z,13.15
2017-11-22T17:49:37.702Z,15.27
2017-11-22T17:52:05.287Z,13.00
2017-11-22T17:54:32.872Z,14.93
2017-11-22T17:57:00.532Z,14.32
2017-11-22T17:59:28.881Z,13.70
2017-11-22T18:01:56.472Z,14.40
2017-11-22T18:04:24.850Z,14.50
2017-11-22T18:06:53.205Z,14.50
2017-11-22T18:09:20.790Z,14.82
2017-11-22T18:11:49.290Z,16.00
2017-11-22T18:14:16.884Z,15.15
2017-11-22T18:16:44.478Z,14.32
2017-11-22T18:19:12.871Z,14.45
2017-11-22T18:21:40.464Z,13.75
2017-11-22T18:24:08.043Z,13.90
2017-11-22T18:26:35.663Z,11.82
2017-11-22T18:29:03.246Z,10.65
2017-11-22T18:31:30.834Z,10.45
2017-11-22T18:33:59.959Z,10.60
2017-11-22T18:36:28.304Z,9.30
2017-11-22T18:38:55.926Z,7.75
2017-11-22T18:41:23.504Z,6.60
2017-11-22T18:43:51.094Z,6.55
2017-11-22T18:46:18.695Z,7.00
2017-11-22T18:48:46.279Z,7.37
2017-11-22T18:51:13.879Z,6.18
2017-11-22T18:53:42.231Z,6.20
2017-11-22T18:56:09.863Z,6.60
2017-11-22T18:58:37.478Z,6.12
2017-11-22T19:01:05.819Z,6.47
2017-11-22T19:03:33.395Z,6.97
2017-11-22T19:06:01.039Z,8.25
2017-11-22T19:08:28.615Z,6.53
2017-11-22T19:10:56.187Z,5.80
2017-11-22T19:13:24.571Z,6.37
2017-11-22T19:15:52.915Z,8.23
2017-11-22T19:18:20.498Z,12.10
2017-11-22T19:20:48.876Z,16.33
2017-11-22T19:23:17.221Z,19.02
2017-11-22T19:25:44.799Z,19.45
2017-11-22T19:28:12.423Z,12.30
2017-11-22T19:30:40.003Z,11.40
2017-11-22T19:33:07.583Z,11.18
2017-11-22T19:35:36.068Z,11.75
2017-11-22T19:38:04.412Z,8.60
2017-11-22T19:40:32.007Z,7.35
2017-11-22T19:43:00.379Z,10.00
2017-11-22T19:45:28.727Z,7.80
2017-11-22T19:47:56.307Z,9.55
2017-11-22T19:50:23.938Z,8.90
2017-11-22T19:52:51.527Z,9.60
2017-11-22T19:55:19.884Z,9.73
2017-11-22T19:57:47.510Z,9.02
2017-11-22T20:00:15.179Z,9.73
2017-11-22T20:02:42.771Z,7.30
2017-11-22T20:05:10.392Z,7.18
2017-11-22T20:07:47.850Z,6.32
2017-11-22T20:10:16.233Z,10.48
2017-11-22T20:12:43.819Z,18.95
2017-11-22T20:15:11.400Z,11.12
2017-11-22T20:17:39.089Z,9.40
2017-11-22T20:20:07.443Z,5.75
2017-11-22T20:22:35.023Z,5.60
2017-11-22T20:25:03.426Z,4.55
2017-11-22T20:27:31.116Z,5.07
2017-11-22T20:29:58.690Z,5.97
2017-11-22T20:32:26.302Z,5.93
2017-11-22T20:34:53.880Z,7.12
2017-11-22T20:37:21.455Z,6.47
2017-11-22T20:39:49.060Z,5.80
2017-11-22T20:42:17.399Z,4.82
2017-11-22T20:44:45.001Z,5.07
2017-11-22T20:47:13.357Z,5.03
2017-11-22T20:49:41.700Z,3.65
2017-11-22T20:52:09.316Z,4.10
2017-11-22T20:54:37.655Z,3.95
2017-11-22T20:57:05.231Z,3.87
2017-11-22T20:59:33.119Z,3.55
2017-11-22T21:02:00.823Z,3.25
2017-11-22T21:04:28.899Z,3.00
2017-11-22T21:06:57.296Z,3.58
2017-11-22T21:09:24.871Z,3.70
2017-11-22T21:11:52.446Z,4.22
2017-11-22T21:14:20.835Z,4.65
2017-11-22T21:16:48.418Z,3.55
2017-11-22T21:19:16.003Z,7.20
2017-11-22T21:21:43.635Z,4.22
2017-11-22T21:24:11.210Z,3.20
2017-11-22T21:26:38.787Z,4.87
2017-11-22T21:29:06.403Z,10.77
2017-11-22T21:31:33.982Z,10.52
2017-11-22T21:34:01.570Z,10.50
2017-11-22T21:36:29.187Z,9.73
2017-11-22T21:38:56.766Z,6.30
2017-11-22T21:41:24.361Z,3.40
2017-11-22T21:43:52.766Z,3.67
2017-11-22T21:46:20.686Z,3.95
2017-11-22T21:48:48.266Z,5.47
2017-11-22T21:51:16.651Z,7.60
2017-11-22T21:53:45.004Z,7.05
2017-11-22T21:56:12.581Z,6.35
2017-11-22T21:58:40.958Z,5.43
2017-11-22T22:01:09.387Z,5.20
2017-11-22T22:03:36.959Z,3.50
2017-11-22T22:06:04.564Z,3.40
2017-11-22T22:08:32.908Z,3.90
2017-11-22T22:11:00.482Z,4.43
2017-11-22T22:13:28.866Z,4.00
2017-11-22T22:15:57.207Z,3.10
2017-11-22T22:18:24.782Z,3.53
2017-11-22T22:20:52.392Z,2.80
2017-11-22T22:23:19.966Z,2.70
2017-11-22T22:25:47.538Z,2.50
2017-11-22T22:28:15.146Z,3.00
2017-11-22T22:30:43.487Z,2.50
2017-11-22T22:33:11.063Z,3.10
2017-11-22T22:35:39.431Z,7.97
2017-11-22T22:38:07.010Z,8.07
2017-11-22T22:40:35.380Z,8.85
2017-11-22T22:43:03.727Z,9.15
2017-11-22T22:45:31.306Z,8.20
2017-11-22T22:48:00.419Z,7.30
2017-11-22T22:50:28.760Z,6.55
2017-11-22T22:52:56.339Z,7.45
2017-11-22T22:55:24.106Z,5.60
2017-11-22T22:57:52.459Z,4.95
2017-11-22T23:00:20.802Z,6.00
2017-11-22T23:02:48.414Z,4.20
2017-11-22T23:05:15.994Z,4.50
2017-11-22T23:07:43.574Z,3.87
2017-11-22T23:10:11.302Z,2.87
2017-11-22T23:12:39.648Z,3.17
2017-11-22T23:15:07.226Z,2.37
2017-11-22T23:17:34.839Z,3.37
2017-11-22T23:20:02.414Z,4.70
2017-11-22T23:22:30.038Z,2.75
2017-11-22T23:24:57.611Z,2.40
2017-11-22T23:27:25.182Z,4.47
2017-11-22T23:29:52.791Z,5.15
